sensor_id;sensor_type;location;lat;lon;timestamp;pressure;altitude;pressure_sealevel;temperature;humidity
63306;BME280;50735;52.060;1.248;2023-05-02T00:00:50;101972.88;;;10.92;58.20
63306;BME280;50735;52.060;1.248;2023-05-02T00:03:22;101972.91;;;10.50;58.99
63306;BME280;50735;52.060;1.248;2023-05-02T00:05:54;101974.41;;;10.60;58.85
63306;BME280;50735;52.060;1.248;2023-05-02T00:08:26;101975.98;;;10.82;57.55
63306;BME280;50735;52.060;1.248;2023-05-02T00:10:58;101976.79;;;10.06;58.95
63306;BME280;50735;52.060;1.248;2023-05-02T00:13:29;101980.10;;;9.95;58.97
63306;BME280;50735;52.060;1.248;2023-05-02T00:16:01;101981.81;;;10.16;58.55
63306;BME280;50735;52.060;1.248;2023-05-02T00:18:33;101983.39;;;9.57;59.83
63306;BME280;50735;52.060;1.248;2023-05-02T00:21:05;101986.62;;;9.54;59.26
63306;BME280;50735;52.060;1.248;2023-05-02T00:23:37;101981.16;;;9.41;59.59
63306;BME280;50735;52.060;1.248;2023-05-02T00:26:09;101981.84;;;9.40;59.87
63306;BME280;50735;52.060;1.248;2023-05-02T00:28:41;101986.94;;;9.48;59.54
63306;BME280;50735;52.060;1.248;2023-05-02T00:31:13;101988.99;;;9.53;59.68
63306;BME280;50735;52.060;1.248;2023-05-02T00:33:44;101991.57;;;9.17;59.67
63306;BME280;50735;52.060;1.248;2023-05-02T00:36:17;101991.80;;;9.43;59.39
63306;BME280;50735;52.060;1.248;2023-05-02T00:38:49;101992.54;;;9.04;60.38
63306;BME280;50735;52.060;1.248;2023-05-02T00:41:21;101993.60;;;8.99;60.53
63306;BME280;50735;52.060;1.248;2023-05-02T00:43:53;101991.06;;;8.74;60.99
63306;BME280;50735;52.060;1.248;2023-05-02T00:46:25;101993.56;;;8.85;60.98
63306;BME280;50735;52.060;1.248;2023-05-02T00:48:57;101997.63;;;9.48;60.60
63306;BME280;50735;52.060;1.248;2023-05-02T00:51:30;102002.83;;;10.01;58.58
63306;BME280;50735;52.060;1.248;2023-05-02T00:54:04;102012.41;;;10.15;58.23
63306;BME280;50735;52.060;1.248;2023-05-02T00:56:36;102016.44;;;9.95;58.92
63306;BME280;50735;52.060;1.248;2023-05-02T00:59:09;102025.87;;;9.91;58.34
63306;BME280;50735;52.060;1.248;2023-05-02T01:01:49;102033.67;;;10.12;57.72
63306;BME280;50735;52.060;1.248;2023-05-02T01:04:33;102030.27;;;10.05;58.33
63306;BME280;50735;52.060;1.248;2023-05-02T01:07:17;102020.36;;;9.92;59.93
63306;BME280;50735;52.060;1.248;2023-05-02T01:10:02;102023.13;;;9.11;61.14
63306;BME280;50735;52.060;1.248;2023-05-02T01:12:40;102028.83;;;9.70;60.72
63306;BME280;50735;52.060;1.248;2023-05-02T01:15:16;102025.55;;;9.88;59.80
63306;BME280;50735;52.060;1.248;2023-05-02T01:17:50;102022.49;;;9.51;60.43
63306;BME280;50735;52.060;1.248;2023-05-02T01:20:25;102023.52;;;9.34;61.46
63306;BME280;50735;52.060;1.248;2023-05-02T01:23:09;102019.13;;;8.65;61.89
63306;BME280;50735;52.060;1.248;2023-05-02T01:25:55;102029.22;;;8.98;61.91
63306;BME280;50735;52.060;1.248;2023-05-02T01:28:41;102035.18;;;9.44;60.19
63306;BME280;50735;52.060;1.248;2023-05-02T01:31:14;102035.98;;;9.36;60.24
63306;BME280;50735;52.060;1.248;2023-05-02T01:33:47;102034.26;;;9.32;60.22
63306;BME280;50735;52.060;1.248;2023-05-02T01:36:20;102036.46;;;8.58;62.22
63306;BME280;50735;52.060;1.248;2023-05-02T01:38:54;102038.58;;;8.99;62.52
63306;BME280;50735;52.060;1.248;2023-05-02T01:41:30;102042.38;;;8.98;61.93
63306;BME280;50735;52.060;1.248;2023-05-02T01:44:04;102044.53;;;8.93;62.07
63306;BME280;50735;52.060;1.248;2023-05-02T01:46:41;102043.08;;;8.98;62.19
63306;BME280;50735;52.060;1.248;2023-05-02T01:49:13;102045.56;;;9.31;61.94
63306;BME280;50735;52.060;1.248;2023-05-02T01:51:48;102051.36;;;9.46;61.27
63306;BME280;50735;52.060;1.248;2023-05-02T01:54:22;102054.95;;;9.39;61.68
63306;BME280;50735;52.060;1.248;2023-05-02T01:56:55;102064.61;;;9.78;59.72
63306;BME280;50735;52.060;1.248;2023-05-02T01:59:29;102067.09;;;9.70;60.16
63306;BME280;50735;52.060;1.248;2023-05-02T02:02:03;102077.34;;;9.88;59.24
63306;BME280;50735;52.060;1.248;2023-05-02T02:04:37;102085.65;;;10.03;59.74
63306;BME280;50735;52.060;1.248;2023-05-02T02:07:12;102093.99;;;10.35;58.28
63306;BME280;50735;52.060;1.248;2023-05-02T02:09:45;102092.53;;;10.13;58.35
63306;BME280;50735;52.060;1.248;2023-05-02T02:12:23;102092.42;;;10.37;57.74
63306;BME280;50735;52.060;1.248;2023-05-02T02:15:02;102099.41;;;9.38;60.02
63306;BME280;50735;52.060;1.248;2023-05-02T02:17:39;102105.35;;;8.43;61.98
63306;BME280;50735;52.060;1.248;2023-05-02T02:20:14;102111.86;;;8.11;62.69
63306;BME280;50735;52.060;1.248;2023-05-02T02:22:47;102115.01;;;8.40;62.42
63306;BME280;50735;52.060;1.248;2023-05-02T02:25:20;102116.40;;;8.75;61.76
63306;BME280;50735;52.060;1.248;2023-05-02T02:27:52;102115.65;;;9.25;60.55
63306;BME280;50735;52.060;1.248;2023-05-02T02:30:25;102117.94;;;9.18;60.89
63306;BME280;50735;52.060;1.248;2023-05-02T02:32:57;102119.92;;;9.16;60.87
63306;BME280;50735;52.060;1.248;2023-05-02T02:35:32;102116.62;;;8.97;60.44
63306;BME280;50735;52.060;1.248;2023-05-02T02:38:12;102120.26;;;8.84;59.77
63306;BME280;50735;52.060;1.248;2023-05-02T02:41:00;102116.75;;;8.40;61.30
63306;BME280;50735;52.060;1.248;2023-05-02T02:43:43;102116.06;;;7.99;61.98
63306;BME280;50735;52.060;1.248;2023-05-02T02:46:27;102117.68;;;7.54;63.36
63306;BME280;50735;52.060;1.248;2023-05-02T02:49:14;102116.97;;;7.92;63.13
63306;BME280;50735;52.060;1.248;2023-05-02T02:51:53;102115.01;;;7.50;62.93
63306;BME280;50735;52.060;1.248;2023-05-02T02:54:33;102111.81;;;8.19;62.69
63306;BME280;50735;52.060;1.248;2023-05-02T02:57:13;102113.19;;;8.49;60.73
63306;BME280;50735;52.060;1.248;2023-05-02T02:59:53;102114.65;;;8.12;61.21
63306;BME280;50735;52.060;1.248;2023-05-02T03:02:31;102117.77;;;8.60;61.52
63306;BME280;50735;52.060;1.248;2023-05-02T03:05:04;102115.24;;;8.54;61.13
63306;BME280;50735;52.060;1.248;2023-05-02T03:07:37;102113.54;;;8.61;60.39
63306;BME280;50735;52.060;1.248;2023-05-02T03:10:09;102114.57;;;8.53;60.54
63306;BME280;50735;52.060;1.248;2023-05-02T03:12:41;102119.15;;;8.32;60.45
63306;BME280;50735;52.060;1.248;2023-05-02T03:15:27;102128.24;;;8.00;60.46
63306;BME280;50735;52.060;1.248;2023-05-02T03:18:03;102132.93;;;8.08;60.81
63306;BME280;50735;52.060;1.248;2023-05-02T03:20:35;102139.95;;;8.03;60.75
63306;BME280;50735;52.060;1.248;2023-05-02T03:23:07;102142.90;;;8.14;60.78
63306;BME280;50735;52.060;1.248;2023-05-02T03:25:38;102143.35;;;7.79;61.05
63306;BME280;50735;52.060;1.248;2023-05-02T03:28:10;102140.71;;;8.00;60.72
63306;BME280;50735;52.060;1.248;2023-05-02T03:30:42;102146.44;;;7.93;61.74
63306;BME280;50735;52.060;1.248;2023-05-02T03:33:14;102149.79;;;7.78;61.30
63306;BME280;50735;52.060;1.248;2023-05-02T03:35:46;102155.47;;;8.40;60.60
63306;BME280;50735;52.060;1.248;2023-05-02T03:38:18;102160.62;;;8.46;59.36
63306;BME280;50735;52.060;1.248;2023-05-02T03:40:49;102159.28;;;8.84;59.20
63306;BME280;50735;52.060;1.248;2023-05-02T03:43:21;102159.68;;;8.79;59.16
63306;BME280;50735;52.060;1.248;2023-05-02T03:45:53;102156.38;;;8.51;60.18
63306;BME280;50735;52.060;1.248;2023-05-02T03:48:25;102156.05;;;8.26;60.74
63306;BME280;50735;52.060;1.248;2023-05-02T03:50:57;102155.07;;;8.11;60.91
63306;BME280;50735;52.060;1.248;2023-05-02T03:53:29;102159.60;;;8.35;60.59
63306;BME280;50735;52.060;1.248;2023-05-02T03:56:02;102161.77;;;8.52;59.42
63306;BME280;50735;52.060;1.248;2023-05-02T03:58:33;102164.42;;;8.76;59.02
63306;BME280;50735;52.060;1.248;2023-05-02T04:01:12;102171.33;;;8.88;59.30
63306;BME280;50735;52.060;1.248;2023-05-02T04:03:45;102176.19;;;8.67;57.91
63306;BME280;50735;52.060;1.248;2023-05-02T04:06:16;102180.55;;;8.75;58.12
63306;BME280;50735;52.060;1.248;2023-05-02T04:08:48;102183.80;;;9.15;57.64
63306;BME280;50735;52.060;1.248;2023-05-02T04:11:21;102187.37;;;9.27;57.45
63306;BME280;50735;52.060;1.248;2023-05-02T04:13:53;102186.93;;;9.41;57.03
63306;BME280;50735;52.060;1.248;2023-05-02T04:16:24;102191.14;;;9.25;56.56
63306;BME280;50735;52.060;1.248;2023-05-02T04:18:56;102194.86;;;8.81;57.79
63306;BME280;50735;52.060;1.248;2023-05-02T04:21:28;102196.25;;;9.41;57.04
63306;BME280;50735;52.060;1.248;2023-05-02T04:24:00;102199.78;;;9.57;56.40
63306;BME280;50735;52.060;1.248;2023-05-02T04:26:32;102206.48;;;9.53;55.92
63306;BME280;50735;52.060;1.248;2023-05-02T04:29:03;102211.91;;;9.83;55.94
63306;BME280;50735;52.060;1.248;2023-05-02T04:31:35;102219.62;;;9.86;55.87
63306;BME280;50735;52.060;1.248;2023-05-02T04:34:07;102226.74;;;9.34;56.51
63306;BME280;50735;52.060;1.248;2023-05-02T04:36:39;102225.76;;;8.86;57.11
63306;BME280;50735;52.060;1.248;2023-05-02T04:39:11;102226.54;;;9.27;57.14
63306;BME280;50735;52.060;1.248;2023-05-02T04:41:43;102226.47;;;9.35;56.83
63306;BME280;50735;52.060;1.248;2023-05-02T04:44:15;102232.62;;;9.41;56.25
63306;BME280;50735;52.060;1.248;2023-05-02T04:46:46;102239.98;;;8.84;57.23
63306;BME280;50735;52.060;1.248;2023-05-02T04:49:18;102245.25;;;9.12;56.16
63306;BME280;50735;52.060;1.248;2023-05-02T04:51:50;102250.37;;;9.25;55.55
63306;BME280;50735;52.060;1.248;2023-05-02T04:54:22;102252.37;;;9.46;55.95
63306;BME280;50735;52.060;1.248;2023-05-02T04:56:54;102252.36;;;9.36;55.94
63306;BME280;50735;52.060;1.248;2023-05-02T04:59:26;102251.13;;;9.20;56.37
63306;BME280;50735;52.060;1.248;2023-05-02T05:01:57;102251.52;;;9.44;55.68
63306;BME280;50735;52.060;1.248;2023-05-02T05:04:29;102256.78;;;9.42;55.21
63306;BME280;50735;52.060;1.248;2023-05-02T05:07:01;102258.65;;;9.65;54.95
63306;BME280;50735;52.060;1.248;2023-05-02T05:09:33;102262.34;;;9.70;54.74
63306;BME280;50735;52.060;1.248;2023-05-02T05:12:04;102266.48;;;9.78;54.59
63306;BME280;50735;52.060;1.248;2023-05-02T05:14:36;102273.67;;;9.84;54.58
63306;BME280;50735;52.060;1.248;2023-05-02T05:17:08;102279.92;;;9.90;54.51
63306;BME280;50735;52.060;1.248;2023-05-02T05:19:40;102281.88;;;9.57;54.22
63306;BME280;50735;52.060;1.248;2023-05-02T05:22:12;102286.86;;;9.97;54.29
63306;BME280;50735;52.060;1.248;2023-05-02T05:24:50;102288.59;;;9.98;54.26
63306;BME280;50735;52.060;1.248;2023-05-02T05:27:21;102293.90;;;10.00;54.22
63306;BME280;50735;52.060;1.248;2023-05-02T05:29:53;102300.71;;;10.24;54.31
63306;BME280;50735;52.060;1.248;2023-05-02T05:32:25;102305.13;;;9.86;54.32
63306;BME280;50735;52.060;1.248;2023-05-02T05:34:56;102308.46;;;10.05;54.38
63306;BME280;50735;52.060;1.248;2023-05-02T05:37:28;102312.26;;;10.12;54.35
63306;BME280;50735;52.060;1.248;2023-05-02T05:40:00;102314.05;;;10.14;54.18
63306;BME280;50735;52.060;1.248;2023-05-02T05:42:32;102318.70;;;9.67;54.47
63306;BME280;50735;52.060;1.248;2023-05-02T05:45:04;102316.06;;;9.88;54.41
63306;BME280;50735;52.060;1.248;2023-05-02T05:47:36;102319.93;;;9.90;54.45
63306;BME280;50735;52.060;1.248;2023-05-02T05:50:08;102327.03;;;9.96;54.60
63306;BME280;50735;52.060;1.248;2023-05-02T05:52:39;102330.25;;;9.68;54.57
63306;BME280;50735;52.060;1.248;2023-05-02T05:55:11;102334.19;;;9.75;55.13
63306;BME280;50735;52.060;1.248;2023-05-02T05:57:43;102339.23;;;10.03;54.69
63306;BME280;50735;52.060;1.248;2023-05-02T06:00:15;102341.68;;;9.99;54.49
63306;BME280;50735;52.060;1.248;2023-05-02T06:02:47;102340.32;;;9.43;55.76
63306;BME280;50735;52.060;1.248;2023-05-02T06:05:19;102338.91;;;9.53;55.84
63306;BME280;50735;52.060;1.248;2023-05-02T06:07:51;102340.58;;;9.24;56.44
63306;BME280;50735;52.060;1.248;2023-05-02T06:10:23;102344.21;;;9.46;55.53
63306;BME280;50735;52.060;1.248;2023-05-02T06:12:54;102356.97;;;8.89;55.84
63306;BME280;50735;52.060;1.248;2023-05-02T06:15:26;102356.61;;;8.65;56.56
63306;BME280;50735;52.060;1.248;2023-05-02T06:17:58;102356.24;;;8.92;56.48
63306;BME280;50735;52.060;1.248;2023-05-02T06:20:30;102356.83;;;8.95;56.62
63306;BME280;50735;52.060;1.248;2023-05-02T06:23:02;102358.79;;;8.81;55.82
63306;BME280;50735;52.060;1.248;2023-05-02T06:25:36;102358.63;;;9.02;55.86
63306;BME280;50735;52.060;1.248;2023-05-02T06:28:09;102360.56;;;9.58;55.49
63306;BME280;50735;52.060;1.248;2023-05-02T06:30:41;102365.76;;;10.06;54.44
63306;BME280;50735;52.060;1.248;2023-05-02T06:33:12;102367.62;;;9.51;54.80
63306;BME280;50735;52.060;1.248;2023-05-02T06:35:50;102369.60;;;9.26;53.60
63306;BME280;50735;52.060;1.248;2023-05-02T06:38:22;102372.69;;;9.04;54.43
63306;BME280;50735;52.060;1.248;2023-05-02T06:40:54;102372.27;;;8.49;55.36
63306;BME280;50735;52.060;1.248;2023-05-02T06:43:26;102377.23;;;8.92;55.57
63306;BME280;50735;52.060;1.248;2023-05-02T06:45:59;102376.69;;;8.94;54.97
63306;BME280;50735;52.060;1.248;2023-05-02T06:48:31;102377.61;;;9.42;51.74
63306;BME280;50735;52.060;1.248;2023-05-02T06:51:03;102381.72;;;9.99;52.67
63306;BME280;50735;52.060;1.248;2023-05-02T06:53:35;102386.33;;;9.19;52.10
63306;BME280;50735;52.060;1.248;2023-05-02T06:56:07;102385.70;;;9.96;51.95
63306;BME280;50735;52.060;1.248;2023-05-02T06:58:39;102388.27;;;10.18;52.30
63306;BME280;50735;52.060;1.248;2023-05-02T07:01:10;102388.99;;;9.63;52.08
63306;BME280;50735;52.060;1.248;2023-05-02T07:03:42;102383.78;;;10.04;50.71
63306;BME280;50735;52.060;1.248;2023-05-02T07:06:14;102383.25;;;9.17;51.63
63306;BME280;50735;52.060;1.248;2023-05-02T07:08:45;102383.93;;;8.88;50.17
63306;BME280;50735;52.060;1.248;2023-05-02T07:11:17;102388.34;;;8.98;48.81
63306;BME280;50735;52.060;1.248;2023-05-02T07:13:49;102390.14;;;9.42;49.21
63306;BME280;50735;52.060;1.248;2023-05-02T07:16:21;102386.43;;;9.39;48.01
63306;BME280;50735;52.060;1.248;2023-05-02T07:18:53;102385.74;;;9.15;49.29
63306;BME280;50735;52.060;1.248;2023-05-02T07:21:24;102387.90;;;9.46;48.76
63306;BME280;50735;52.060;1.248;2023-05-02T07:23:56;102390.02;;;9.40;48.48
63306;BME280;50735;52.060;1.248;2023-05-02T07:26:28;102384.39;;;9.95;47.15
63306;BME280;50735;52.060;1.248;2023-05-02T07:29:00;102384.15;;;9.79;47.41
63306;BME280;50735;52.060;1.248;2023-05-02T07:31:31;102389.24;;;8.58;48.83
63306;BME280;50735;52.060;1.248;2023-05-02T07:34:03;102385.45;;;9.20;48.92
63306;BME280;50735;52.060;1.248;2023-05-02T07:36:35;102391.18;;;9.70;48.07
63306;BME280;50735;52.060;1.248;2023-05-02T07:39:07;102396.26;;;9.32;48.88
63306;BME280;50735;52.060;1.248;2023-05-02T07:41:39;102398.97;;;8.84;48.76
63306;BME280;50735;52.060;1.248;2023-05-02T07:44:11;102401.32;;;8.86;48.73
63306;BME280;50735;52.060;1.248;2023-05-02T07:46:42;102401.81;;;9.91;47.24
63306;BME280;50735;52.060;1.248;2023-05-02T07:49:14;102408.98;;;10.02;46.69
63306;BME280;50735;52.060;1.248;2023-05-02T07:51:46;102407.01;;;10.20;43.66
63306;BME280;50735;52.060;1.248;2023-05-02T07:54:19;102410.01;;;9.96;45.01
63306;BME280;50735;52.060;1.248;2023-05-02T07:56:51;102411.87;;;9.79;44.61
63306;BME280;50735;52.060;1.248;2023-05-02T07:59:23;102416.99;;;9.53;44.93
63306;BME280;50735;52.060;1.248;2023-05-02T08:01:55;102416.32;;;9.52;45.87
63306;BME280;50735;52.060;1.248;2023-05-02T08:04:27;102416.79;;;10.25;44.74
63306;BME280;50735;52.060;1.248;2023-05-02T08:06:58;102418.65;;;10.17;44.73
63306;BME280;50735;52.060;1.248;2023-05-02T08:09:30;102420.09;;;10.09;45.01
63306;BME280;50735;52.060;1.248;2023-05-02T08:12:02;102427.31;;;9.99;45.30
63306;BME280;50735;52.060;1.248;2023-05-02T08:14:34;102431.89;;;9.94;46.76
63306;BME280;50735;52.060;1.248;2023-05-02T08:17:06;102430.72;;;9.44;45.91
63306;BME280;50735;52.060;1.248;2023-05-02T08:19:37;102430.51;;;9.67;46.29
63306;BME280;50735;52.060;1.248;2023-05-02T08:22:09;102433.56;;;9.75;46.76
63306;BME280;50735;52.060;1.248;2023-05-02T08:24:41;102437.13;;;10.01;47.55
63306;BME280;50735;52.060;1.248;2023-05-02T08:27:13;102434.90;;;10.32;45.54
63306;BME280;50735;52.060;1.248;2023-05-02T08:29:45;102436.01;;;10.15;45.71
63306;BME280;50735;52.060;1.248;2023-05-02T08:32:17;102435.59;;;9.97;46.60
63306;BME280;50735;52.060;1.248;2023-05-02T08:34:49;102435.78;;;9.72;45.78
63306;BME280;50735;52.060;1.248;2023-05-02T08:37:21;102441.90;;;10.51;44.24
63306;BME280;50735;52.060;1.248;2023-05-02T08:39:52;102444.17;;;10.67;44.51
63306;BME280;50735;52.060;1.248;2023-05-02T08:42:25;102441.56;;;10.60;45.59
63306;BME280;50735;52.060;1.248;2023-05-02T08:44:57;102444.99;;;10.50;45.28
63306;BME280;50735;52.060;1.248;2023-05-02T08:47:29;102442.69;;;10.05;45.54
63306;BME280;50735;52.060;1.248;2023-05-02T08:50:02;102446.07;;;10.14;45.23
63306;BME280;50735;52.060;1.248;2023-05-02T08:52:35;102449.94;;;10.23;45.89
63306;BME280;50735;52.060;1.248;2023-05-02T08:55:07;102455.03;;;10.29;44.50
63306;BME280;50735;52.060;1.248;2023-05-02T08:57:40;102456.24;;;10.78;44.43
63306;BME280;50735;52.060;1.248;2023-05-02T09:00:15;102460.64;;;10.65;44.73
63306;BME280;50735;52.060;1.248;2023-05-02T09:02:55;102453.52;;;10.11;45.11
63306;BME280;50735;52.060;1.248;2023-05-02T09:05:40;102455.81;;;10.83;45.64
63306;BME280;50735;52.060;1.248;2023-05-02T09:08:12;102459.93;;;10.92;44.49
63306;BME280;50735;52.060;1.248;2023-05-02T09:10:51;102456.02;;;10.95;43.00
63306;BME280;50735;52.060;1.248;2023-05-02T09:13:32;102457.99;;;10.75;43.49
63306;BME280;50735;52.060;1.248;2023-05-02T09:16:06;102460.60;;;10.84;42.86
63306;BME280;50735;52.060;1.248;2023-05-02T09:18:41;102467.86;;;10.67;44.08
63306;BME280;50735;52.060;1.248;2023-05-02T09:21:14;102472.80;;;10.07;45.10
63306;BME280;50735;52.060;1.248;2023-05-02T09:23:47;102473.63;;;11.01;43.99
63306;BME280;50735;52.060;1.248;2023-05-02T09:26:21;102470.10;;;11.37;43.77
63306;BME280;50735;52.060;1.248;2023-05-02T09:28:54;102474.13;;;10.84;44.09
63306;BME280;50735;52.060;1.248;2023-05-02T09:31:28;102472.51;;;11.30;43.29
63306;BME280;50735;52.060;1.248;2023-05-02T09:34:07;102477.11;;;11.99;43.27
63306;BME280;50735;52.060;1.248;2023-05-02T09:36:41;102484.12;;;11.89;42.47
63306;BME280;50735;52.060;1.248;2023-05-02T09:39:15;102489.33;;;11.56;43.25
63306;BME280;50735;52.060;1.248;2023-05-02T09:41:48;102489.29;;;11.41;43.22
63306;BME280;50735;52.060;1.248;2023-05-02T09:44:23;102486.61;;;11.05;44.05
63306;BME280;50735;52.060;1.248;2023-05-02T09:46:55;102489.32;;;11.42;42.80
63306;BME280;50735;52.060;1.248;2023-05-02T09:49:39;102494.90;;;11.34;43.47
63306;BME280;50735;52.060;1.248;2023-05-02T09:52:12;102499.46;;;12.27;42.21
63306;BME280;50735;52.060;1.248;2023-05-02T09:54:44;102504.69;;;11.39;42.83
63306;BME280;50735;52.060;1.248;2023-05-02T09:57:16;102504.85;;;11.48;42.57
63306;BME280;50735;52.060;1.248;2023-05-02T09:59:56;102506.84;;;11.52;42.93
63306;BME280;50735;52.060;1.248;2023-05-02T10:02:29;102508.95;;;11.62;44.06
63306;BME280;50735;52.060;1.248;2023-05-02T10:05:06;102514.01;;;12.30;42.64
63306;BME280;50735;52.060;1.248;2023-05-02T10:07:39;102519.84;;;11.95;42.14
63306;BME280;50735;52.060;1.248;2023-05-02T10:10:15;102522.38;;;12.11;42.19
63306;BME280;50735;52.060;1.248;2023-05-02T10:12:47;102519.11;;;12.14;40.36
63306;BME280;50735;52.060;1.248;2023-05-02T10:15:22;102517.85;;;12.25;40.52
63306;BME280;50735;52.060;1.248;2023-05-02T10:17:57;102517.06;;;12.68;40.63
63306;BME280;50735;52.060;1.248;2023-05-02T10:20:34;102522.37;;;12.91;40.27
63306;BME280;50735;52.060;1.248;2023-05-02T10:23:07;102528.33;;;12.00;42.05
63306;BME280;50735;52.060;1.248;2023-05-02T10:25:40;102526.46;;;12.25;40.95
63306;BME280;50735;52.060;1.248;2023-05-02T10:28:13;102522.41;;;12.35;40.74
63306;BME280;50735;52.060;1.248;2023-05-02T10:30:46;102527.90;;;11.77;42.57
63306;BME280;50735;52.060;1.248;2023-05-02T10:33:19;102526.70;;;11.25;43.00
63306;BME280;50735;52.060;1.248;2023-05-02T10:35:51;102523.52;;;11.39;43.62
63306;BME280;50735;52.060;1.248;2023-05-02T10:38:23;102525.00;;;11.72;43.88
63306;BME280;50735;52.060;1.248;2023-05-02T10:40:59;102528.80;;;11.33;42.44
63306;BME280;50735;52.060;1.248;2023-05-02T10:43:33;102532.59;;;12.35;41.86
63306;BME280;50735;52.060;1.248;2023-05-02T10:46:29;102525.40;;;12.46;41.33
63306;BME280;50735;52.060;1.248;2023-05-02T10:49:03;102525.84;;;12.11;41.68
63306;BME280;50735;52.060;1.248;2023-05-02T10:51:36;102521.12;;;12.96;41.10
63306;BME280;50735;52.060;1.248;2023-05-02T10:54:24;102522.92;;;13.03;40.22
63306;BME280;50735;52.060;1.248;2023-05-02T10:57:05;102526.26;;;13.30;38.91
63306;BME280;50735;52.060;1.248;2023-05-02T10:59:39;102529.75;;;13.62;38.85
63306;BME280;50735;52.060;1.248;2023-05-02T11:02:46;102531.95;;;13.44;37.59
63306;BME280;50735;52.060;1.248;2023-05-02T11:05:20;102525.04;;;13.81;37.34
63306;BME280;50735;52.060;1.248;2023-05-02T11:08:29;102528.01;;;13.72;38.00
63306;BME280;50735;52.060;1.248;2023-05-02T11:11:37;102523.33;;;13.89;37.73
63306;BME280;50735;52.060;1.248;2023-05-02T11:14:11;102526.99;;;13.30;37.78
63306;BME280;50735;52.060;1.248;2023-05-02T11:17:08;102534.15;;;13.12;37.96
63306;BME280;50735;52.060;1.248;2023-05-02T11:20:20;102531.77;;;12.73;37.93
63306;BME280;50735;52.060;1.248;2023-05-02T11:22:54;102532.89;;;13.79;37.06
63306;BME280;50735;52.060;1.248;2023-05-02T11:25:29;102526.84;;;14.08;35.50
63306;BME280;50735;52.060;1.248;2023-05-02T11:28:03;102538.59;;;14.39;35.53
63306;BME280;50735;52.060;1.248;2023-05-02T11:30:37;102537.94;;;13.98;35.91
63306;BME280;50735;52.060;1.248;2023-05-02T11:33:11;102538.85;;;14.19;36.03
63306;BME280;50735;52.060;1.248;2023-05-02T11:35:45;102538.13;;;14.32;36.42
63306;BME280;50735;52.060;1.248;2023-05-02T11:38:19;102546.22;;;14.66;36.70
63306;BME280;50735;52.060;1.248;2023-05-02T11:40:53;102553.09;;;15.00;35.95
63306;BME280;50735;52.060;1.248;2023-05-02T11:43:26;102552.42;;;15.02;34.90
63306;BME280;50735;52.060;1.248;2023-05-02T11:45:59;102551.58;;;14.44;35.10
63306;BME280;50735;52.060;1.248;2023-05-02T11:48:32;102549.98;;;14.46;35.41
63306;BME280;50735;52.060;1.248;2023-05-02T11:51:03;102552.87;;;14.44;35.06
63306;BME280;50735;52.060;1.248;2023-05-02T11:53:39;102550.26;;;14.33;35.59
63306;BME280;50735;52.060;1.248;2023-05-02T11:56:11;102552.22;;;14.18;35.98
63306;BME280;50735;52.060;1.248;2023-05-02T11:58:43;102553.97;;;14.25;35.90
63306;BME280;50735;52.060;1.248;2023-05-02T12:01:15;102554.30;;;14.52;36.09
63306;BME280;50735;52.060;1.248;2023-05-02T12:03:46;102556.64;;;14.61;36.09
63306;BME280;50735;52.060;1.248;2023-05-02T12:06:18;102561.64;;;14.20;35.37
63306;BME280;50735;52.060;1.248;2023-05-02T12:08:50;102562.47;;;14.24;35.07
63306;BME280;50735;52.060;1.248;2023-05-02T12:11:22;102563.24;;;14.43;35.92
63306;BME280;50735;52.060;1.248;2023-05-02T12:13:54;102564.69;;;13.44;36.12
63306;BME280;50735;52.060;1.248;2023-05-02T12:16:26;102566.61;;;13.58;36.50
63306;BME280;50735;52.060;1.248;2023-05-02T12:18:58;102573.65;;;13.60;36.33
63306;BME280;50735;52.060;1.248;2023-05-02T12:21:30;102573.01;;;13.22;37.22
63306;BME280;50735;52.060;1.248;2023-05-02T12:24:03;102572.95;;;13.11;37.47
63306;BME280;50735;52.060;1.248;2023-05-02T12:26:36;102572.15;;;13.46;38.00
63306;BME280;50735;52.060;1.248;2023-05-02T12:29:07;102577.62;;;14.02;35.86
63306;BME280;50735;52.060;1.248;2023-05-02T12:31:49;102576.99;;;14.28;35.84
63306;BME280;50735;52.060;1.248;2023-05-02T12:34:38;102584.03;;;13.72;35.50
63306;BME280;50735;52.060;1.248;2023-05-02T12:37:11;102577.10;;;13.80;36.15
63306;BME280;50735;52.060;1.248;2023-05-02T12:39:42;102576.71;;;13.21;36.14
63306;BME280;50735;52.060;1.248;2023-05-02T12:42:16;102580.56;;;13.65;36.57
63306;BME280;50735;52.060;1.248;2023-05-02T12:44:49;102585.62;;;14.00;36.10
63306;BME280;50735;52.060;1.248;2023-05-02T12:47:21;102585.60;;;13.78;35.56
63306;BME280;50735;52.060;1.248;2023-05-02T12:49:55;102587.90;;;13.82;35.84
63306;BME280;50735;52.060;1.248;2023-05-02T12:52:46;102591.66;;;13.90;35.33
63306;BME280;50735;52.060;1.248;2023-05-02T12:55:20;102591.50;;;13.73;35.44
63306;BME280;50735;52.060;1.248;2023-05-02T12:57:59;102593.00;;;13.80;35.37
63306;BME280;50735;52.060;1.248;2023-05-02T13:00:33;102592.58;;;14.36;35.33
63306;BME280;50735;52.060;1.248;2023-05-02T13:03:05;102598.11;;;14.78;34.89
63306;BME280;50735;52.060;1.248;2023-05-02T13:05:38;102599.09;;;14.64;34.03
63306;BME280;50735;52.060;1.248;2023-05-02T13:08:09;102590.82;;;15.38;34.38
63306;BME280;50735;52.060;1.248;2023-05-02T13:10:42;102592.79;;;15.48;33.31
63306;BME280;50735;52.060;1.248;2023-05-02T13:13:14;102590.76;;;14.99;33.14
63306;BME280;50735;52.060;1.248;2023-05-02T13:15:46;102597.08;;;15.39;33.11
63306;BME280;50735;52.060;1.248;2023-05-02T13:18:17;102595.52;;;15.55;33.16
63306;BME280;50735;52.060;1.248;2023-05-02T13:20:49;102601.40;;;15.49;32.71
63306;BME280;50735;52.060;1.248;2023-05-02T13:23:21;102610.09;;;15.46;32.92
63306;BME280;50735;52.060;1.248;2023-05-02T13:25:53;102610.36;;;15.12;33.26
63306;BME280;50735;52.060;1.248;2023-05-02T13:28:25;102619.29;;;15.21;34.07
63306;BME280;50735;52.060;1.248;2023-05-02T13:30:57;102625.25;;;14.53;33.84